Terminal Aerodrome Forecast
Issued by NWS

Home | Current Version | Previous Version | Text Only | Print | Product List | Glossary On
Versions: 1 2 3 4 5 6 7 8 9 10 11 12 13 14 15 16 17 18 19
000
FTUS43 KGRB 251100
TAFATW
TAF
KATW 251123Z 2512/2612 22006KT P6SM VCSH SCT060 BKN070
      WS010/24030KT
      TEMPO 2512/2516 5SM -SHRA BKN050
     FM251600 18010G15KT P6SM VCSH BKN040 BKN090
     FM260200 19005KT 5SM -SHRA BR SCT020 BKN035
     FM260800 22004KT 3SM BR SCT010 OVC018=

USA.gov is the U.S. government's official web portal to all federal, state and local government web resources and services.